Time;durP1;ratioP1;P1;durP2;ratioP2;P2;SDS_P1;SDS_P2;PMS_P1;PMS_P2;Temp;Humidity;BMP_temperature;BMP_pressure;BME280_temperature;BME280_humidity;BME280_pressure;Samples;Min_cycle;Max_cycle;Signal;HPM_P1;HPM_P2
2022/02/24 00:02:07;;;;;;;2.28;1.40;;;;;;;;;;5003209;28;20315;-57
2022/02/24 00:04:32;;;;;;;2.78;1.60;;;;;;;;;;5003207;28;20453;-58
2022/02/24 00:06:58;;;;;;;2.70;1.50;;;;;;;;;;4994423;28;20516;-57
2022/02/24 00:09:23;;;;;;;2.42;1.55;;;;;;;;;;4966507;28;20084;-57
2022/02/24 00:11:48;;;;;;;2.10;1.30;;;;;;;;;;4983874;28;20506;-58
2022/02/24 00:14:13;;;;;;;2.00;1.30;;;;;;;;;;4983424;28;20882;-58
2022/02/24 00:16:39;;;;;;;1.93;1.10;;;;;;;;;;4983401;28;20266;-58
2022/02/24 00:19:04;;;;;;;3.00;1.60;;;;;;;;;;5003907;28;20274;-59
2022/02/24 00:21:29;;;;;;;2.80;1.50;;;;;;;;;;5010658;28;20049;-58
2022/02/24 00:23:55;;;;;;;2.40;1.40;;;;;;;;;;5004656;28;20120;-56
2022/02/24 00:26:20;;;;;;;2.80;1.58;;;;;;;;;;4998161;28;20053;-59
2022/02/24 00:28:45;;;;;;;2.40;1.60;;;;;;;;;;4983370;28;20026;-57
2022/02/24 00:31:10;;;;;;;3.43;1.57;;;;;;;;;;4983743;28;20034;-57
2022/02/24 00:33:36;;;;;;;2.37;1.43;;;;;;;;;;4983192;28;20034;-58
2022/02/24 00:36:01;;;;;;;2.55;1.50;;;;;;;;;;4983200;28;20023;-57
2022/02/24 00:38:26;;;;;;;2.07;1.30;;;;;;;;;;4993266;28;20033;-58
2022/02/24 00:40:52;;;;;;;3.07;1.90;;;;;;;;;;5014152;28;21096;-58
2022/02/24 00:43:17;;;;;;;2.43;1.40;;;;;;;;;;5002641;28;20281;-58
2022/02/24 00:45:42;;;;;;;2.00;1.43;;;;;;;;;;5002981;28;20268;-58
2022/02/24 00:48:08;;;;;;;3.05;1.48;;;;;;;;;;4983591;28;20340;-57
2022/02/24 00:50:34;;;;;;;2.50;1.45;;;;;;;;;;4965877;28;20022;-58
2022/02/24 00:52:59;;;;;;;3.05;1.27;;;;;;;;;;4982925;28;20592;-55
2022/02/24 00:55:25;;;;;;;2.00;1.20;;;;;;;;;;4982890;28;20030;-57
2022/02/24 00:57:51;;;;;;;3.25;1.85;;;;;;;;;;4982089;28;20092;-57
2022/02/24 01:00:16;;;;;;;2.38;1.20;;;;;;;;;;5014947;28;20030;-57
2022/02/24 01:02:42;;;;;;;2.47;1.40;;;;;;;;;;4997988;28;20112;-57
2022/02/24 01:05:07;;;;;;;2.83;1.40;;;;;;;;;;4988544;28;20018;-58
2022/02/24 01:07:32;;;;;;;2.15;1.48;;;;;;;;;;4996932;28;20029;-58
2022/02/24 01:09:58;;;;;;;2.47;1.40;;;;;;;;;;5002238;28;20535;-58
2022/02/24 01:12:24;;;;;;;2.37;1.40;;;;;;;;;;5002221;28;20534;-58
2022/02/24 01:14:49;;;;;;;2.03;1.40;;;;;;;;;;5001850;28;20022;-58
2022/02/24 01:17:14;;;;;;;3.15;1.90;;;;;;;;;;5002313;28;20037;-58
2022/02/24 01:19:39;;;;;;;3.10;1.50;;;;;;;;;;4987362;28;20045;-59
2022/02/24 01:22:05;;;;;;;2.73;1.50;;;;;;;;;;5000858;28;20962;-57
2022/02/24 01:24:30;;;;;;;2.43;1.60;;;;;;;;;;5001474;28;20734;-57
2022/02/24 01:26:55;;;;;;;2.40;1.37;;;;;;;;;;5002037;28;20308;-57
2022/02/24 01:29:20;;;;;;;2.93;1.60;;;;;;;;;;5002134;28;20265;-58
2022/02/24 01:31:46;;;;;;;2.50;1.23;;;;;;;;;;5001866;28;20036;-55
2022/02/24 01:34:11;;;;;;;2.00;1.35;;;;;;;;;;5001186;28;20312;-57
2022/02/24 01:36:36;;;;;;;2.33;1.50;;;;;;;;;;5002002;28;20488;-59
2022/02/24 01:39:02;;;;;;;3.17;1.20;;;;;;;;;;4992136;28;20273;-58
2022/02/24 01:41:27;;;;;;;2.05;1.30;;;;;;;;;;4994556;28;20211;-57
2022/02/24 01:43:52;;;;;;;2.33;1.48;;;;;;;;;;5001525;28;20026;-58
2022/02/24 01:46:18;;;;;;;1.90;1.23;;;;;;;;;;5001370;28;20383;-57
2022/02/24 01:48:43;;;;;;;1.77;1.20;;;;;;;;;;5001340;28;20288;-57
2022/02/24 01:51:09;;;;;;;3.10;1.42;;;;;;;;;;5001627;28;20708;-57
2022/02/24 01:53:34;;;;;;;2.88;1.13;;;;;;;;;;4980726;28;20894;-57
2022/02/24 01:55:59;;;;;;;2.03;1.27;;;;;;;;;;4998284;28;20395;-57
2022/02/24 01:58:25;;;;;;;2.37;1.60;;;;;;;;;;4983155;28;20025;-57
2022/02/24 02:00:51;;;;;;;2.40;1.40;;;;;;;;;;5001391;28;20327;-57
2022/02/24 02:03:16;;;;;;;2.53;1.30;;;;;;;;;;5001338;28;20021;-57
2022/02/24 02:05:41;;;;;;;2.77;1.57;;;;;;;;;;5000201;28;20026;-57
2022/02/24 02:08:07;;;;;;;2.67;1.50;;;;;;;;;;4993403;28;20603;-57
2022/02/24 02:10:32;;;;;;;2.47;1.30;;;;;;;;;;5000870;28;20076;-57
2022/02/24 02:12:57;;;;;;;2.17;1.30;;;;;;;;;;5000714;28;20119;-57
2022/02/24 02:15:22;;;;;;;2.03;1.17;;;;;;;;;;5000932;28;20370;-57
2022/02/24 02:17:48;;;;;;;2.58;1.50;;;;;;;;;;5000439;28;20308;-57
2022/02/24 02:20:13;;;;;;;2.35;1.40;;;;;;;;;;4984259;28;20378;-58
2022/02/24 02:22:38;;;;;;;2.30;1.10;;;;;;;;;;5000686;28;20550;-57
2022/02/24 02:25:04;;;;;;;2.33;1.50;;;;;;;;;;5000211;28;20305;-57
2022/02/24 02:27:30;;;;;;;2.90;1.45;;;;;;;;;;4974799;28;20908;-57
2022/02/24 02:29:55;;;;;;;1.83;1.10;;;;;;;;;;5000685;28;20041;-58
2022/02/24 02:32:21;;;;;;;2.15;1.20;;;;;;;;;;5000623;28;20113;-57
2022/02/24 02:34:46;;;;;;;2.15;1.30;;;;;;;;;;5000097;28;20064;-58
2022/02/24 02:37:12;;;;;;;2.75;1.42;;;;;;;;;;5000691;28;20467;-58
2022/02/24 02:39:37;;;;;;;3.20;1.50;;;;;;;;;;4986058;28;20061;-57
2022/02/24 02:42:02;;;;;;;2.20;1.43;;;;;;;;;;4997881;28;20275;-58
2022/02/24 02:44:27;;;;;;;1.95;1.08;;;;;;;;;;5000481;28;20715;-57
2022/02/24 02:46:53;;;;;;;2.90;1.40;;;;;;;;;;4979035;28;20487;-57
2022/02/24 02:49:18;;;;;;;2.20;1.20;;;;;;;;;;4986251;28;20062;-57
2022/02/24 02:51:43;;;;;;;2.65;1.30;;;;;;;;;;4997299;28;20033;-57
2022/02/24 02:54:08;;;;;;;2.30;1.30;;;;;;;;;;5000480;28;20041;-59
2022/02/24 02:56:33;;;;;;;2.40;1.60;;;;;;;;;;4994322;28;20285;-59
2022/02/24 02:59:00;;;;;;;2.10;1.20;;;;;;;;;;4990646;28;20030;-58
2022/02/24 03:01:26;;;;;;;2.00;1.35;;;;;;;;;;5007397;28;20640;-58
2022/02/24 03:03:51;;;;;;;2.27;1.30;;;;;;;;;;5000043;28;20033;-57
2022/02/24 03:06:16;;;;;;;1.93;1.23;;;;;;;;;;5000042;28;20780;-57
2022/02/24 03:08:41;;;;;;;1.93;1.40;;;;;;;;;;5000363;28;20496;-56
2022/02/24 03:11:06;;;;;;;2.00;1.00;;;;;;;;;;4991749;28;20625;-57
2022/02/24 03:13:34;;;;;;;2.50;1.23;;;;;;;;;;4999799;28;20431;-57
2022/02/24 03:15:59;;;;;;;1.98;1.08;;;;;;;;;;4999607;28;20064;-57
2022/02/24 03:18:25;;;;;;;2.53;1.17;;;;;;;;;;4999998;28;20494;-59
2022/02/24 03:20:50;;;;;;;2.50;1.10;;;;;;;;;;4999971;28;20260;-56
2022/02/24 03:23:15;;;;;;;2.67;1.45;;;;;;;;;;5000363;28;20088;-57
2022/02/24 03:25:41;;;;;;;2.63;1.50;;;;;;;;;;4999667;28;20034;-57
2022/02/24 03:28:07;;;;;;;2.58;1.35;;;;;;;;;;4999973;28;20026;-58
2022/02/24 03:30:34;;;;;;;2.47;1.40;;;;;;;;;;5004327;28;20029;-57
2022/02/24 03:33:02;;;;;;;1.90;1.20;;;;;;;;;;5003802;28;20116;-57
2022/02/24 03:35:28;;;;;;;2.60;1.20;;;;;;;;;;5003375;28;20044;-57
2022/02/24 03:37:53;;;;;;;1.67;1.13;;;;;;;;;;5003803;28;20424;-57
2022/02/24 03:40:18;;;;;;;1.73;1.17;;;;;;;;;;4987030;28;20287;-57
2022/02/24 03:42:44;;;;;;;1.60;1.15;;;;;;;;;;5003463;28;20025;-57
2022/02/24 03:45:09;;;;;;;1.80;1.05;;;;;;;;;;5003366;28;20029;-57
2022/02/24 03:47:34;;;;;;;2.80;1.33;;;;;;;;;;5003655;28;20045;-57
2022/02/24 03:50:00;;;;;;;2.45;1.20;;;;;;;;;;5003505;28;20464;-57
2022/02/24 03:52:25;;;;;;;1.90;1.23;;;;;;;;;;5004089;28;20041;-57
2022/02/24 03:54:50;;;;;;;1.98;1.02;;;;;;;;;;5003171;28;20022;-57
2022/02/24 03:57:15;;;;;;;1.97;1.20;;;;;;;;;;5003989;28;20405;-57
2022/02/24 03:59:41;;;;;;;2.53;1.30;;;;;;;;;;4989552;28;20285;-57
2022/02/24 04:02:06;;;;;;;2.10;1.13;;;;;;;;;;5000537;28;20547;-57
2022/02/24 04:04:31;;;;;;;2.10;1.27;;;;;;;;;;4988039;28;20277;-57
2022/02/24 04:06:56;;;;;;;2.87;1.30;;;;;;;;;;5003447;28;20267;-57
2022/02/24 04:09:22;;;;;;;3.53;1.38;;;;;;;;;;5003272;28;20312;-56
2022/02/24 04:11:48;;;;;;;2.63;1.30;;;;;;;;;;4981915;28;20032;-57
2022/02/24 04:14:13;;;;;;;1.90;1.05;;;;;;;;;;5002032;28;20041;-57
2022/02/24 04:16:38;;;;;;;2.60;1.17;;;;;;;;;;5002905;28;20431;-56
2022/02/24 04:19:03;;;;;;;2.25;1.10;;;;;;;;;;5002879;28;20480;-57
2022/02/24 04:21:29;;;;;;;1.83;1.30;;;;;;;;;;5003206;28;20030;-57
2022/02/24 04:23:54;;;;;;;2.65;1.50;;;;;;;;;;5003324;28;20327;-57
2022/02/24 04:26:20;;;;;;;2.28;1.05;;;;;;;;;;5002565;28;20028;-56
2022/02/24 04:28:45;;;;;;;2.00;1.10;;;;;;;;;;4985297;28;20022;-57
2022/02/24 04:31:10;;;;;;;1.70;1.10;;;;;;;;;;5002880;28;20017;-57
2022/02/24 04:33:35;;;;;;;2.85;1.20;;;;;;;;;;5003199;28;20296;-57
2022/02/24 04:36:01;;;;;;;1.95;1.00;;;;;;;;;;4993056;28;20042;-58
2022/02/24 04:38:26;;;;;;;2.08;1.13;;;;;;;;;;4981299;28;20029;-59
2022/02/24 04:40:51;;;;;;;2.27;1.10;;;;;;;;;;4990369;28;20042;-57
2022/02/24 04:43:16;;;;;;;2.70;1.10;;;;;;;;;;5002551;28;20271;-56
2022/02/24 04:45:42;;;;;;;2.10;1.20;;;;;;;;;;5002037;28;20109;-57
2022/02/24 04:48:07;;;;;;;2.00;1.10;;;;;;;;;;5002066;28;20121;-57
2022/02/24 04:50:33;;;;;;;3.00;1.25;;;;;;;;;;5002802;28;20138;-58
2022/02/24 04:52:58;;;;;;;2.25;1.15;;;;;;;;;;4994673;28;20046;-61
2022/02/24 04:55:23;;;;;;;1.87;1.00;;;;;;;;;;4982548;28;20037;-56
2022/02/24 04:57:49;;;;;;;1.83;1.10;;;;;;;;;;4982422;28;20042;-56
2022/02/24 05:00:14;;;;;;;3.15;1.33;;;;;;;;;;5001450;28;20033;-57
2022/02/24 05:02:39;;;;;;;2.53;1.20;;;;;;;;;;5002636;28;20498;-56
2022/02/24 05:05:05;;;;;;;1.93;1.03;;;;;;;;;;5002441;28;20088;-57
2022/02/24 05:07:30;;;;;;;2.92;1.10;;;;;;;;;;5002031;28;20327;-57
2022/02/24 05:09:55;;;;;;;1.83;0.90;;;;;;;;;;4981038;28;20464;-57
2022/02/24 05:12:20;;;;;;;1.73;1.00;;;;;;;;;;5001625;28;20492;-57
2022/02/24 05:14:45;;;;;;;2.40;1.20;;;;;;;;;;5002366;28;20111;-57
2022/02/24 05:17:11;;;;;;;1.97;1.10;;;;;;;;;;5002482;28;20026;-56
2022/02/24 05:19:36;;;;;;;2.10;1.30;;;;;;;;;;5015363;28;20802;-57
2022/02/24 05:22:01;;;;;;;2.40;1.02;;;;;;;;;;5004750;28;20504;-57
2022/02/24 05:24:26;;;;;;;2.08;1.20;;;;;;;;;;5001611;28;20060;-56
2022/02/24 05:26:52;;;;;;;1.73;1.00;;;;;;;;;;4999780;28;20618;-57
2022/02/24 05:29:17;;;;;;;1.60;1.03;;;;;;;;;;5002053;28;20018;-56
2022/02/24 05:31:42;;;;;;;2.13;1.23;;;;;;;;;;5002175;28;20037;-56
2022/02/24 05:34:07;;;;;;;1.70;0.93;;;;;;;;;;4995084;28;20073;-57
2022/02/24 05:36:33;;;;;;;3.13;1.10;;;;;;;;;;4999135;28;20018;-57
2022/02/24 05:38:58;;;;;;;1.73;1.00;;;;;;;;;;4993680;28;20881;-57
2022/02/24 05:41:24;;;;;;;4.38;1.10;;;;;;;;;;4996118;28;20269;-57
2022/02/24 05:43:51;;;;;;;2.70;1.27;;;;;;;;;;4983639;28;20022;-58
2022/02/24 05:46:17;;;;;;;2.30;1.00;;;;;;;;;;4970819;28;20023;-58
2022/02/24 05:48:42;;;;;;;1.40;0.95;;;;;;;;;;4976833;28;20382;-57
2022/02/24 05:51:07;;;;;;;2.65;1.33;;;;;;;;;;4999509;28;20013;-56
2022/02/24 05:53:33;;;;;;;2.15;1.13;;;;;;;;;;5000508;28;20128;-57
2022/02/24 05:55:58;;;;;;;2.60;1.10;;;;;;;;;;5000209;28;20013;-59
2022/02/24 05:58:23;;;;;;;2.00;1.00;;;;;;;;;;4997986;28;20260;-59
2022/02/24 06:00:48;;;;;;;3.07;1.10;;;;;;;;;;5000347;28;20643;-60
2022/02/24 06:03:14;;;;;;;2.27;1.00;;;;;;;;;;5001226;28;20488;-60
2022/02/24 06:05:39;;;;;;;2.00;1.00;;;;;;;;;;5001214;28;20264;-58
2022/02/24 06:08:04;;;;;;;1.60;0.88;;;;;;;;;;5000790;28;20063;-57
2022/02/24 06:10:30;;;;;;;1.98;1.30;;;;;;;;;;5000126;28;20017;-59
2022/02/24 06:12:57;;;;;;;3.28;0.90;;;;;;;;;;5002715;28;20056;-59
2022/02/24 06:15:23;;;;;;;1.55;0.90;;;;;;;;;;4989155;28;20014;-57
2022/02/24 06:17:48;;;;;;;2.00;1.08;;;;;;;;;;4995399;28;20028;-57
2022/02/24 06:20:13;;;;;;;2.03;1.10;;;;;;;;;;4997426;28;20572;-60
2022/02/24 06:22:38;;;;;;;1.80;1.00;;;;;;;;;;4992055;28;20775;-59
2022/02/24 06:25:04;;;;;;;2.10;1.00;;;;;;;;;;5000227;28;20275;-60
2022/02/24 06:27:29;;;;;;;3.08;1.08;;;;;;;;;;5000487;28;20279;-59
2022/02/24 06:29:54;;;;;;;2.33;1.00;;;;;;;;;;4999539;28;20041;-58
2022/02/24 06:32:20;;;;;;;1.58;0.82;;;;;;;;;;4999940;28;20121;-59
2022/02/24 06:34:45;;;;;;;1.80;0.80;;;;;;;;;;4999624;28;20038;-58
2022/02/24 06:37:10;;;;;;;1.87;1.03;;;;;;;;;;4999766;28;20037;-57
2022/02/24 06:39:35;;;;;;;1.30;0.70;;;;;;;;;;4999890;28;20030;-57
2022/02/24 06:42:00;;;;;;;1.80;1.13;;;;;;;;;;4997074;28;20401;-60
2022/02/24 06:44:26;;;;;;;2.03;0.80;;;;;;;;;;5000413;28;20072;-59
2022/02/24 06:46:51;;;;;;;1.80;0.82;;;;;;;;;;5000933;28;20795;-61
2022/02/24 06:49:16;;;;;;;1.67;0.83;;;;;;;;;;4998541;28;20060;-62
2022/02/24 06:51:42;;;;;;;1.83;1.10;;;;;;;;;;4999065;28;20228;-64
2022/02/24 06:54:07;;;;;;;1.93;0.67;;;;;;;;;;4996534;28;20493;-62
2022/02/24 06:56:32;;;;;;;1.60;0.70;;;;;;;;;;4999690;28;20269;-62
2022/02/24 06:58:57;;;;;;;1.45;0.90;;;;;;;;;;4999995;28;20021;-60
2022/02/24 07:01:23;;;;;;;1.60;0.90;;;;;;;;;;4996888;28;20067;-62
2022/02/24 07:03:48;;;;;;;1.50;0.80;;;;;;;;;;4997451;28;20022;-58
2022/02/24 07:06:13;;;;;;;1.87;0.87;;;;;;;;;;5000101;28;20395;-56
2022/02/24 07:08:39;;;;;;;1.73;1.00;;;;;;;;;;4999846;28;20345;-59
2022/02/24 07:11:04;;;;;;;3.35;1.00;;;;;;;;;;4998982;28;20045;-63
2022/02/24 07:13:30;;;;;;;1.80;0.80;;;;;;;;;;4999348;28;20041;-67
2022/02/24 07:15:55;;;;;;;1.47;0.70;;;;;;;;;;4999123;28;20022;-60
2022/02/24 07:18:20;;;;;;;1.33;0.80;;;;;;;;;;4998302;28;20053;-56
2022/02/24 07:20:45;;;;;;;1.87;1.00;;;;;;;;;;4998662;28;20272;-58
2022/02/24 07:23:10;;;;;;;1.50;0.80;;;;;;;;;;4999039;28;20283;-63
2022/02/24 07:25:36;;;;;;;1.47;0.80;;;;;;;;;;4998476;28;20280;-60
2022/02/24 07:28:01;;;;;;;2.75;1.02;;;;;;;;;;4992956;28;20649;-61
2022/02/24 07:30:27;;;;;;;2.20;0.90;;;;;;;;;;4993669;28;20025;-61
2022/02/24 07:32:52;;;;;;;1.53;0.90;;;;;;;;;;5000928;28;20104;-62
2022/02/24 07:35:17;;;;;;;1.57;0.83;;;;;;;;;;5000531;28;20017;-61
2022/02/24 07:37:42;;;;;;;1.30;0.80;;;;;;;;;;4998919;28;20145;-61
2022/02/24 07:40:09;;;;;;;1.37;0.70;;;;;;;;;;4997899;28;20140;-59
2022/02/24 07:42:34;;;;;;;1.92;0.95;;;;;;;;;;4994695;28;20273;-58
2022/02/24 07:45:00;;;;;;;2.00;1.10;;;;;;;;;;4986311;28;20423;-61
2022/02/24 07:47:25;;;;;;;2.85;0.93;;;;;;;;;;4996826;28;20025;-57
2022/02/24 07:49:50;;;;;;;2.23;1.10;;;;;;;;;;4991195;28;20023;-57
2022/02/24 07:52:16;;;;;;;1.63;0.80;;;;;;;;;;4990699;28;20029;-56
2022/02/24 07:54:41;;;;;;;3.65;1.05;;;;;;;;;;4998403;28;20068;-56
2022/02/24 07:57:06;;;;;;;2.77;0.93;;;;;;;;;;4987136;28;20047;-59
2022/02/24 07:59:31;;;;;;;1.92;0.93;;;;;;;;;;4996269;28;20372;-59
2022/02/24 08:01:57;;;;;;;2.63;1.03;;;;;;;;;;4967611;28;20108;-57
2022/02/24 08:04:22;;;;;;;2.35;1.00;;;;;;;;;;4998933;28;20273;-59
2022/02/24 08:06:47;;;;;;;1.60;1.07;;;;;;;;;;4990153;28;20423;-59
2022/02/24 08:09:12;;;;;;;1.63;0.90;;;;;;;;;;4980366;28;20415;-59
2022/02/24 08:11:38;;;;;;;2.35;1.10;;;;;;;;;;4971323;28;20025;-57
2022/02/24 08:14:03;;;;;;;2.00;1.03;;;;;;;;;;4994897;28;20566;-58
2022/02/24 08:16:28;;;;;;;2.42;1.00;;;;;;;;;;5002673;28;20319;-59
2022/02/24 08:18:59;;;;;;;2.57;0.97;;;;;;;;;;5003067;28;20022;-59
2022/02/24 08:21:24;;;;;;;3.63;1.30;;;;;;;;;;5002661;28;21120;-58
2022/02/24 08:23:50;;;;;;;1.85;0.88;;;;;;;;;;4985643;28;20083;-59
2022/02/24 08:26:15;;;;;;;2.13;1.00;;;;;;;;;;5001900;28;20499;-59
2022/02/24 08:28:40;;;;;;;2.57;1.03;;;;;;;;;;5002823;28;20036;-59
2022/02/24 08:31:05;;;;;;;1.80;0.97;;;;;;;;;;5002663;28;20323;-59
2022/02/24 08:33:31;;;;;;;2.22;1.08;;;;;;;;;;4989578;28;20348;-60
2022/02/24 08:35:56;;;;;;;1.70;0.85;;;;;;;;;;4983045;28;20077;-59
2022/02/24 08:38:21;;;;;;;1.55;0.88;;;;;;;;;;4983096;28;20049;-60
2022/02/24 08:40:47;;;;;;;2.57;0.80;;;;;;;;;;4981089;28;20433;-60
2022/02/24 08:43:12;;;;;;;2.25;0.98;;;;;;;;;;4982944;28;20498;-60
2022/02/24 08:45:37;;;;;;;2.37;1.17;;;;;;;;;;4982917;28;20026;-59
2022/02/24 08:48:03;;;;;;;1.43;0.90;;;;;;;;;;4983280;28;20069;-60
2022/02/24 08:50:28;;;;;;;1.95;0.95;;;;;;;;;;4986872;28;20288;-59
2022/02/24 08:52:54;;;;;;;2.65;1.10;;;;;;;;;;4985187;28;20097;-60
2022/02/24 08:55:19;;;;;;;1.98;1.05;;;;;;;;;;4985901;28;20022;-60
2022/02/24 08:57:44;;;;;;;2.23;0.90;;;;;;;;;;4982553;28;20034;-60
2022/02/24 09:00:10;;;;;;;1.77;1.00;;;;;;;;;;4984143;28;20619;-60
2022/02/24 09:02:35;;;;;;;2.03;0.95;;;;;;;;;;4983619;28;20116;-60
2022/02/24 09:05:01;;;;;;;2.07;0.93;;;;;;;;;;4982931;28;20022;-60
2022/02/24 09:07:26;;;;;;;1.65;0.90;;;;;;;;;;4985249;28;20281;-60
2022/02/24 09:09:51;;;;;;;2.13;0.90;;;;;;;;;;4983205;28;20104;-59
2022/02/24 09:12:16;;;;;;;2.47;1.10;;;;;;;;;;4980504;28;20022;-59
2022/02/24 09:14:42;;;;;;;1.93;1.00;;;;;;;;;;4985336;28;20037;-60
2022/02/24 09:17:07;;;;;;;1.57;0.87;;;;;;;;;;4983079;28;20037;-58
2022/02/24 09:19:32;;;;;;;3.58;1.00;;;;;;;;;;4983610;28;20026;-59
2022/02/24 09:21:57;;;;;;;2.60;1.07;;;;;;;;;;4986402;28;20023;-60
2022/02/24 09:24:23;;;;;;;1.73;0.90;;;;;;;;;;4985485;28;20281;-60
2022/02/24 09:26:48;;;;;;;1.73;0.90;;;;;;;;;;5000545;28;20269;-60
2022/02/24 09:29:14;;;;;;;2.33;0.90;;;;;;;;;;5002155;28;20033;-60
2022/02/24 09:31:39;;;;;;;2.45;0.90;;;;;;;;;;4982375;28;20030;-61
2022/02/24 09:34:04;;;;;;;2.47;1.20;;;;;;;;;;4992512;28;20076;-62
2022/02/24 09:36:30;;;;;;;2.03;1.10;;;;;;;;;;4985728;28;20036;-60
2022/02/24 09:38:55;;;;;;;2.22;1.02;;;;;;;;;;5001499;28;20022;-59
2022/02/24 09:41:23;;;;;;;2.43;1.00;;;;;;;;;;5001423;28;20490;-59
2022/02/24 09:43:49;;;;;;;1.55;0.90;;;;;;;;;;5001296;28;20626;-59
2022/02/24 09:46:14;;;;;;;2.20;1.00;;;;;;;;;;4981071;28;20623;-59
2022/02/24 09:48:42;;;;;;;2.43;1.27;;;;;;;;;;4980822;28;20563;-59
2022/02/24 09:51:07;;;;;;;2.20;1.00;;;;;;;;;;4980381;28;20386;-60
2022/02/24 09:53:34;;;;;;;2.80;0.90;;;;;;;;;;4994183;28;20549;-59
2022/02/24 09:55:59;;;;;;;2.28;0.80;;;;;;;;;;4982232;28;20056;-59
2022/02/24 09:58:25;;;;;;;2.13;1.10;;;;;;;;;;4988914;28;20480;-61
2022/02/24 10:00:50;;;;;;;2.17;0.95;;;;;;;;;;4980952;28;20030;-60
2022/02/24 10:03:31;;;;;;;1.60;0.90;;;;;;;;;;4986877;28;20065;-59
2022/02/24 10:05:56;;;;;;;2.80;1.10;;;;;;;;;;4985951;28;20022;-57
2022/02/24 10:08:25;;;;;;;2.13;0.80;;;;;;;;;;4981729;28;20030;-59
2022/02/24 10:10:50;;;;;;;2.40;0.93;;;;;;;;;;4963801;28;20073;-59
2022/02/24 10:13:17;;;;;;;1.37;1.00;;;;;;;;;;4981579;28;20045;-61
2022/02/24 10:15:43;;;;;;;1.83;0.80;;;;;;;;;;4991171;28;20428;-59
2022/02/24 10:18:09;;;;;;;2.88;1.20;;;;;;;;;;4995966;28;20040;-58
2022/02/24 10:20:38;;;;;;;2.45;1.10;;;;;;;;;;5000495;28;20025;-58
2022/02/24 10:23:03;;;;;;;3.33;1.10;;;;;;;;;;5000613;28;20097;-58
2022/02/24 10:25:29;;;;;;;1.57;0.73;;;;;;;;;;4989352;28;20713;-59
2022/02/24 10:27:54;;;;;;;1.50;1.05;;;;;;;;;;4963382;28;20468;-62
2022/02/24 10:30:19;;;;;;;1.30;0.80;;;;;;;;;;4981094;28;20026;-61
2022/02/24 10:32:48;;;;;;;1.92;0.80;;;;;;;;;;4980161;28;20285;-60
2022/02/24 10:35:37;;;;;;;1.92;1.05;;;;;;;;;;4985182;28;20026;-60
2022/02/24 10:38:09;;;;;;;2.10;0.88;;;;;;;;;;4981454;28;20061;-58
2022/02/24 10:40:36;;;;;;;2.45;0.80;;;;;;;;;;4971294;28;20029;-59
2022/02/24 10:43:13;;;;;;;2.83;0.77;;;;;;;;;;4999833;28;20361;-59
2022/02/24 10:45:39;;;;;;;1.92;0.85;;;;;;;;;;5000087;28;20459;-60
2022/02/24 10:48:04;;;;;;;2.40;0.90;;;;;;;;;;4998805;28;20488;-60
2022/02/24 10:50:48;;;;;;;1.63;0.80;;;;;;;;;;4996330;28;20061;-60
2022/02/24 10:53:14;;;;;;;1.98;1.00;;;;;;;;;;4992613;28;20111;-59
2022/02/24 10:55:52;;;;;;;2.13;1.00;;;;;;;;;;4992806;28;20025;-60
2022/02/24 10:58:17;;;;;;;1.50;0.70;;;;;;;;;;4981777;28;20030;-61
2022/02/24 11:00:42;;;;;;;1.23;0.70;;;;;;;;;;4986450;28;20725;-59
2022/02/24 11:03:08;;;;;;;1.77;0.90;;;;;;;;;;4998904;28;20428;-58
2022/02/24 11:05:34;;;;;;;1.60;0.90;;;;;;;;;;4999397;28;20025;-66
2022/02/24 11:07:59;;;;;;;1.90;0.88;;;;;;;;;;5000106;28;20034;-66
2022/02/24 11:10:24;;;;;;;1.90;1.00;;;;;;;;;;4980673;28;20470;-66
2022/02/24 11:12:49;;;;;;;1.97;0.97;;;;;;;;;;4986583;28;20287;-63
2022/02/24 11:15:15;;;;;;;1.50;0.80;;;;;;;;;;4982541;28;20026;-62
2022/02/24 11:17:40;;;;;;;1.37;0.60;;;;;;;;;;5001207;28;20350;-61
2022/02/24 11:20:05;;;;;;;1.80;0.97;;;;;;;;;;4984530;28;20400;-59
2022/02/24 11:22:30;;;;;;;2.72;1.00;;;;;;;;;;4996861;28;20104;-61
2022/02/24 11:24:56;;;;;;;1.47;0.83;;;;;;;;;;4975735;28;20110;-61
2022/02/24 11:27:24;;;;;;;1.33;0.80;;;;;;;;;;5000081;28;20364;-61
2022/02/24 11:29:52;;;;;;;1.70;1.10;;;;;;;;;;5000452;28;20022;-61
2022/02/24 11:32:19;;;;;;;1.35;0.80;;;;;;;;;;4987070;28;20031;-63
2022/02/24 11:35:07;;;;;;;2.22;0.80;;;;;;;;;;4970420;28;20038;-65
2022/02/24 11:37:35;;;;;;;1.75;0.90;;;;;;;;;;4971998;28;20060;-63
2022/02/24 11:40:05;;;;;;;1.75;0.70;;;;;;;;;;4991786;28;20029;-63
2022/02/24 11:42:30;;;;;;;1.85;0.80;;;;;;;;;;4963330;28;20026;-60
2022/02/24 11:44:56;;;;;;;2.20;1.02;;;;;;;;;;4993659;28;20105;-60
2022/02/24 11:47:22;;;;;;;2.33;0.90;;;;;;;;;;4980970;28;20026;-59
2022/02/24 11:49:53;;;;;;;1.75;0.98;;;;;;;;;;4981654;28;20062;-58
2022/02/24 11:52:28;;;;;;;1.63;0.90;;;;;;;;;;4988123;28;20037;-59
2022/02/24 11:54:54;;;;;;;1.27;0.90;;;;;;;;;;4985879;28;20045;-59
2022/02/24 11:57:26;;;;;;;1.92;0.82;;;;;;;;;;4985989;28;20022;-59
2022/02/24 11:59:52;;;;;;;1.30;0.70;;;;;;;;;;4983666;28;20096;-58
2022/02/24 12:02:17;;;;;;;1.80;0.70;;;;;;;;;;4984892;28;20022;-59
2022/02/24 12:04:45;;;;;;;1.73;0.80;;;;;;;;;;4984140;28;20022;-58
2022/02/24 12:07:14;;;;;;;2.50;0.90;;;;;;;;;;4986500;28;20497;-60
2022/02/24 12:09:39;;;;;;;1.55;0.80;;;;;;;;;;4967009;28;20028;-61
2022/02/24 12:12:11;;;;;;;1.50;0.70;;;;;;;;;;4984028;28;20076;-60
2022/02/24 12:14:36;;;;;;;1.60;0.70;;;;;;;;;;4983839;28;20730;-61
2022/02/24 12:17:04;;;;;;;1.40;0.80;;;;;;;;;;4987048;28;20117;-61
2022/02/24 12:19:36;;;;;;;4.40;0.90;;;;;;;;;;4983903;28;20037;-59
2022/02/24 12:22:12;;;;;;;1.42;0.80;;;;;;;;;;4989140;28;20033;-59
2022/02/24 12:24:37;;;;;;;1.77;0.80;;;;;;;;;;4965315;28;20033;-61
2022/02/24 12:27:21;;;;;;;1.60;0.80;;;;;;;;;;4967536;28;20026;-59
2022/02/24 12:29:46;;;;;;;1.73;1.00;;;;;;;;;;4965388;28;20276;-60
2022/02/24 12:32:11;;;;;;;1.70;0.90;;;;;;;;;;4982970;28;20412;-60
2022/02/24 12:34:37;;;;;;;1.40;0.70;;;;;;;;;;4981688;28;20560;-60
2022/02/24 12:37:13;;;;;;;2.15;1.02;;;;;;;;;;4965549;28;20516;-60
2022/02/24 12:39:38;;;;;;;1.60;0.90;;;;;;;;;;4982707;28;20076;-59
2022/02/24 12:42:06;;;;;;;1.90;0.70;;;;;;;;;;4988559;28;20034;-60
2022/02/24 12:44:31;;;;;;;1.80;0.73;;;;;;;;;;4988226;28;20018;-60
2022/02/24 12:46:56;;;;;;;1.45;0.80;;;;;;;;;;4992481;28;20058;-60
2022/02/24 12:49:22;;;;;;;1.85;0.80;;;;;;;;;;4991878;28;20124;-60
2022/02/24 12:51:47;;;;;;;1.38;0.75;;;;;;;;;;4990927;28;20346;-61
2022/02/24 12:54:13;;;;;;;1.97;0.83;;;;;;;;;;4973068;28;20065;-61
2022/02/24 12:56:38;;;;;;;1.40;0.77;;;;;;;;;;4963306;28;20118;-59
2022/02/24 12:59:10;;;;;;;1.63;0.70;;;;;;;;;;4984654;28;20579;-60
2022/02/24 13:01:35;;;;;;;1.70;0.88;;;;;;;;;;4983774;28;20042;-58
2022/02/24 13:04:01;;;;;;;2.33;0.63;;;;;;;;;;4980456;28;20049;-58
2022/02/24 13:06:31;;;;;;;1.40;0.60;;;;;;;;;;5000601;28;20107;-58
2022/02/24 13:11:40;;;;;;;1.38;0.77;;;;;;;;;;4992329;28;20033;-59
2022/02/24 13:14:05;;;;;;;1.13;0.70;;;;;;;;;;4970564;28;20430;-60
2022/02/24 13:16:30;;;;;;;1.50;0.80;;;;;;;;;;5001166;28;20033;-61
2022/02/24 13:18:56;;;;;;;1.77;0.90;;;;;;;;;;5001325;28;20418;-61
2022/02/24 13:21:22;;;;;;;1.40;0.70;;;;;;;;;;4983898;28;20025;-60
2022/02/24 13:23:47;;;;;;;1.33;0.80;;;;;;;;;;4993352;28;20049;-60
2022/02/24 13:26:13;;;;;;;1.30;0.70;;;;;;;;;;4983602;28;20065;-61
2022/02/24 13:28:38;;;;;;;1.00;0.57;;;;;;;;;;5001308;28;20025;-62
2022/02/24 13:31:04;;;;;;;1.65;0.68;;;;;;;;;;4998135;28;20528;-60
2022/02/24 13:33:39;;;;;;;1.27;0.77;;;;;;;;;;5001420;28;20084;-60
2022/02/24 13:36:05;;;;;;;1.30;0.63;;;;;;;;;;4997868;28;20136;-60
2022/02/24 13:38:31;;;;;;;1.50;0.68;;;;;;;;;;4998382;28;20100;-60
2022/02/24 13:40:58;;;;;;;1.60;0.70;;;;;;;;;;5001580;28;20041;-60
2022/02/24 13:43:24;;;;;;;1.63;0.70;;;;;;;;;;5000764;28;20025;-58
2022/02/24 13:45:51;;;;;;;1.20;0.70;;;;;;;;;;5000573;28;20022;-60
2022/02/24 13:48:20;;;;;;;1.45;0.70;;;;;;;;;;5000920;28;20045;-60
2022/02/24 13:50:48;;;;;;;2.28;0.90;;;;;;;;;;4995618;28;20017;-61
2022/02/24 13:53:20;;;;;;;1.40;0.80;;;;;;;;;;4983352;28;20405;-60
2022/02/24 13:55:50;;;;;;;1.10;0.60;;;;;;;;;;4983310;28;20100;-61
2022/02/24 13:58:15;;;;;;;1.90;0.70;;;;;;;;;;4999455;28;20484;-59
2022/02/24 14:00:42;;;;;;;0.93;0.53;;;;;;;;;;5000338;28;20064;-58
2022/02/24 14:03:11;;;;;;;1.40;0.73;;;;;;;;;;5000392;28;20370;-60
2022/02/24 14:05:36;;;;;;;1.48;0.68;;;;;;;;;;5000106;28;20535;-59
2022/02/24 14:08:03;;;;;;;1.40;0.73;;;;;;;;;;4990392;28;20073;-59
2022/02/24 14:10:28;;;;;;;1.63;0.77;;;;;;;;;;4981670;28;20466;-60
2022/02/24 14:12:53;;;;;;;0.82;0.50;;;;;;;;;;4963467;28;20069;-60
2022/02/24 14:15:18;;;;;;;1.60;0.60;;;;;;;;;;4980053;28;20038;-60
2022/02/24 14:17:44;;;;;;;1.42;0.68;;;;;;;;;;4984252;28;20296;-59
2022/02/24 14:20:13;;;;;;;1.10;0.60;;;;;;;;;;4982719;28;20490;-60
2022/02/24 14:22:38;;;;;;;1.23;0.83;;;;;;;;;;4981381;28;20022;-59
2022/02/24 14:25:04;;;;;;;1.42;0.73;;;;;;;;;;4980749;28;20022;-59
2022/02/24 14:27:29;;;;;;;1.25;0.60;;;;;;;;;;4980812;28;20026;-57
2022/02/24 14:29:54;;;;;;;0.95;0.57;;;;;;;;;;4995270;28;20018;-61
2022/02/24 14:32:19;;;;;;;0.80;0.53;;;;;;;;;;5000335;28;20044;-60
2022/02/24 14:34:45;;;;;;;0.90;0.60;;;;;;;;;;4999898;28;20296;-59
2022/02/24 14:37:11;;;;;;;0.70;0.50;;;;;;;;;;5000722;28;20033;-60
2022/02/24 14:39:37;;;;;;;1.20;0.60;;;;;;;;;;5004279;28;20032;-61